createdAt,value
2019-01-21T00:00:35.897Z,24.60
2019-01-21T00:03:14.059Z,22.35
2019-01-21T00:05:39.422Z,22.15
2019-01-21T00:08:10.190Z,21.90
2019-01-21T00:10:40.963Z,20.93
2019-01-21T00:13:12.017Z,25.07
2019-01-21T00:15:42.839Z,25.23
2019-01-21T00:18:13.566Z,24.20
2019-01-21T00:20:44.329Z,21.63
2019-01-21T00:23:15.089Z,21.83
2019-01-21T00:25:45.871Z,21.83
2019-01-21T00:28:16.634Z,21.23
2019-01-21T00:30:47.394Z,23.37
2019-01-21T00:33:18.206Z,21.10
2019-01-21T00:35:48.982Z,21.90
2019-01-21T00:38:19.752Z,21.80
2019-01-21T00:40:50.515Z,23.10
2019-01-21T00:43:21.351Z,20.70
2019-01-21T00:45:52.152Z,21.97
2019-01-21T00:48:22.924Z,21.13
2019-01-21T00:50:53.678Z,19.27
2019-01-21T00:53:24.467Z,20.67
2019-01-21T00:55:55.227Z,21.47
2019-01-21T00:58:25.999Z,21.80
2019-01-21T01:00:56.758Z,20.20
2019-01-21T01:03:27.519Z,19.77
2019-01-21T01:05:58.272Z,19.67
2019-01-21T01:08:29.048Z,20.37
2019-01-21T01:10:59.810Z,21.90
2019-01-21T01:13:30.626Z,19.80
2019-01-21T01:16:01.391Z,22.10
2019-01-21T01:18:32.188Z,21.20
2019-01-21T01:21:02.945Z,20.40
2019-01-21T01:23:33.714Z,20.27
2019-01-21T01:26:04.480Z,20.30
2019-01-21T01:28:35.250Z,20.20
2019-01-21T01:31:05.999Z,21.37
2019-01-21T01:33:36.765Z,21.20
2019-01-21T01:36:08.291Z,19.57
2019-01-21T01:38:39.155Z,23.30
2019-01-21T01:41:09.914Z,21.63
2019-01-21T01:43:40.693Z,19.70
2019-01-21T01:46:11.472Z,23.93
2019-01-21T01:48:42.246Z,20.10
2019-01-21T01:51:13.011Z,21.10
2019-01-21T01:53:43.876Z,21.70
2019-01-21T01:56:14.645Z,22.53
2019-01-21T01:58:45.439Z,20.20
2019-01-21T02:01:16.324Z,21.23
2019-01-21T02:03:47.401Z,23.02
2019-01-21T02:06:18.259Z,20.67
2019-01-21T02:08:49.032Z,24.40
2019-01-21T02:11:19.803Z,22.20
2019-01-21T02:13:50.608Z,22.07
2019-01-21T02:16:21.365Z,21.47
2019-01-21T02:18:52.143Z,22.43
2019-01-21T02:21:25.097Z,21.27
2019-01-21T02:23:59.683Z,22.93
2019-01-21T02:26:32.962Z,20.90
2019-01-21T02:29:06.936Z,22.02
2019-01-21T02:31:53.807Z,22.73
2019-01-21T02:34:28.435Z,21.62
2019-01-21T02:37:31.980Z,21.97
2019-01-21T02:40:27.869Z,20.57
2019-01-21T02:43:17.619Z,24.15
2019-01-21T02:46:10.372Z,22.17
2019-01-21T02:49:08.107Z,22.50
2019-01-21T02:51:57.535Z,21.35
2019-01-21T02:54:41.158Z,23.62
2019-01-21T02:57:24.792Z,21.97
2019-01-21T03:00:02.954Z,22.65
2019-01-21T03:02:37.522Z,20.55
2019-01-21T03:05:23.925Z,22.07
2019-01-21T03:07:58.492Z,22.73
2019-01-21T03:10:49.882Z,23.22
2019-01-21T03:13:27.518Z,24.35
2019-01-21T03:16:10.853Z,22.55
2019-01-21T03:18:54.408Z,24.00
2019-01-21T03:21:45.811Z,23.18
2019-01-21T03:24:46.089Z,22.95
2019-01-21T03:27:47.578Z,20.75
2019-01-21T03:30:41.852Z,22.85
2019-01-21T03:33:22.721Z,22.75
2019-01-21T03:36:00.160Z,20.30
2019-01-21T03:38:49.442Z,22.85
2019-01-21T03:41:24.040Z,21.62
2019-01-21T03:44:16.640Z,23.80
2019-01-21T03:46:51.709Z,22.13
2019-01-21T03:49:37.842Z,22.20
2019-01-21T03:52:27.595Z,19.90
2019-01-21T03:55:00.252Z,21.10
2019-01-21T03:57:37.987Z,19.23
2019-01-21T04:00:24.850Z,19.73
2019-01-21T04:03:17.823Z,17.77
2019-01-21T04:06:01.475Z,20.68
2019-01-21T04:08:48.141Z,18.35
2019-01-21T04:11:22.751Z,17.95
2019-01-21T04:13:57.314Z,19.30
2019-01-21T04:16:37.698Z,20.92
2019-01-21T04:19:24.190Z,19.02
2019-01-21T04:22:04.894Z,18.85
2019-01-21T04:24:57.506Z,19.52
2019-01-21T04:27:53.076Z,18.92
2019-01-21T04:30:33.426Z,19.35
2019-01-21T04:33:14.205Z,18.42
2019-01-21T04:36:05.438Z,17.87
2019-01-21T04:38:51.838Z,19.85
2019-01-21T04:41:29.246Z,16.95
2019-01-21T04:44:09.621Z,18.73
2019-01-21T04:47:13.091Z,18.57
2019-01-21T04:50:11.659Z,18.37
2019-01-21T04:53:20.966Z,15.53
2019-01-21T04:56:18.412Z,17.70
2019-01-21T04:59:12.762Z,16.55
2019-01-21T05:02:16.344Z,18.45
2019-01-21T05:04:53.942Z,17.60
2019-01-21T05:07:28.635Z,17.10
2019-01-21T05:10:18.511Z,17.65
2019-01-21T05:13:15.824Z,17.32
2019-01-21T05:15:59.365Z,17.55
2019-01-21T05:18:48.872Z,15.98
2019-01-21T05:21:32.906Z,15.15
2019-01-21T05:24:33.452Z,17.32
2019-01-21T05:27:29.568Z,14.28
2019-01-21T05:30:09.699Z,16.35
2019-01-21T05:33:02.409Z,15.00
2019-01-21T05:35:42.990Z,18.25
2019-01-21T05:38:26.847Z,17.07
2019-01-21T05:41:10.478Z,16.60
2019-01-21T05:44:11.331Z,16.55
2019-01-21T05:47:05.474Z,16.65
2019-01-21T05:50:02.611Z,16.95
2019-01-21T05:52:46.485Z,18.12
2019-01-21T05:55:42.367Z,18.40
2019-01-21T05:58:29.027Z,16.87
2019-01-21T06:01:03.997Z,16.23
2019-01-21T06:04:06.242Z,19.55
2019-01-21T06:06:57.699Z,17.77
2019-01-21T06:09:38.520Z,17.10
2019-01-21T06:12:13.149Z,15.28
2019-01-21T06:14:53.879Z,14.40
2019-01-21T06:17:33.995Z,16.12
2019-01-21T06:20:30.981Z,16.73
2019-01-21T06:23:17.862Z,16.20
2019-01-21T06:25:52.428Z,13.85
2019-01-21T06:28:43.672Z,15.63
2019-01-21T06:31:27.177Z,17.52
2019-01-21T06:34:16.569Z,16.25
2019-01-21T06:37:12.518Z,14.78
2019-01-21T06:39:58.840Z,16.42
2019-01-21T06:42:48.301Z,17.30
2019-01-21T06:45:28.198Z,17.45
2019-01-21T06:48:05.930Z,17.32
2019-01-21T06:50:43.746Z,17.42
2019-01-21T06:53:30.612Z,17.52
2019-01-21T06:56:20.337Z,19.82
2019-01-21T06:59:14.526Z,16.10
2019-01-21T07:02:07.258Z,16.35
2019-01-21T07:04:58.734Z,16.87
2019-01-21T07:07:36.333Z,18.37
2019-01-21T07:10:28.574Z,17.32
2019-01-21T07:13:09.143Z,19.00
2019-01-21T07:15:49.169Z,17.00
2019-01-21T07:18:47.957Z,19.32
2019-01-21T07:21:39.227Z,17.82
2019-01-21T07:24:28.913Z,18.30
2019-01-21T07:27:20.184Z,17.95
2019-01-21T07:30:04.400Z,17.15
2019-01-21T07:32:57.266Z,18.60
2019-01-21T07:35:51.219Z,17.55
2019-01-21T07:38:31.079Z,18.05
2019-01-21T07:41:22.114Z,19.65
2019-01-21T07:44:05.322Z,17.30
2019-01-21T07:47:02.259Z,17.23
2019-01-21T07:49:56.832Z,19.42
2019-01-21T07:52:34.233Z,18.73
2019-01-21T07:55:24.151Z,19.02
2019-01-21T07:58:21.619Z,17.52
2019-01-21T08:01:05.265Z,19.90
2019-01-21T08:03:59.851Z,17.50
2019-01-21T08:06:49.828Z,19.12
2019-01-21T08:09:29.998Z,18.30
2019-01-21T08:12:10.171Z,18.50
2019-01-21T08:15:09.116Z,18.23
2019-01-21T08:17:55.879Z,18.50
2019-01-21T08:20:30.502Z,17.70
2019-01-21T08:23:05.077Z,17.87
2019-01-21T08:25:45.581Z,18.60
2019-01-21T08:28:35.066Z,18.35
2019-01-21T08:31:12.665Z,17.70
2019-01-21T08:34:05.350Z,18.00
2019-01-21T08:36:56.704Z,17.70
2019-01-21T08:39:34.005Z,18.40
2019-01-21T08:42:28.426Z,17.80
2019-01-21T08:45:24.098Z,18.37
2019-01-21T08:48:25.769Z,19.10
2019-01-21T08:51:06.150Z,16.85
2019-01-21T08:53:49.541Z,17.82
2019-01-21T08:56:33.577Z,17.40
2019-01-21T17:39:27.164Z,16.65
2019-01-21T17:41:58.011Z,17.60
2019-01-21T17:44:28.797Z,14.90
2019-01-21T17:46:59.551Z,16.53
2019-01-21T17:49:30.337Z,16.97
2019-01-21T17:52:01.203Z,16.67
2019-01-21T17:54:34.948Z,16.03
2019-01-21T17:57:04.651Z,15.48
2019-01-21T17:59:35.417Z,14.53
2019-01-21T18:02:06.176Z,15.90
2019-01-21T18:04:36.944Z,13.10
2019-01-21T18:07:07.984Z,15.17
2019-01-21T18:09:38.772Z,15.45
2019-01-21T18:12:09.536Z,14.37
2019-01-21T18:14:40.363Z,14.63
2019-01-21T18:17:11.382Z,17.50
2019-01-21T18:19:42.172Z,16.62
2019-01-21T18:22:12.930Z,18.23
2019-01-21T18:24:43.721Z,18.17
2019-01-21T18:27:14.478Z,14.57
2019-01-21T18:29:45.239Z,16.80
2019-01-21T18:32:16.015Z,17.83
2019-01-21T18:34:46.827Z,18.70
2019-01-21T18:37:17.722Z,17.83
2019-01-21T18:39:50.283Z,19.00
2019-01-21T18:42:21.075Z,17.92
2019-01-21T18:44:51.878Z,19.63
2019-01-21T18:47:22.725Z,17.87
2019-01-21T18:49:53.493Z,17.47
2019-01-21T18:52:24.254Z,19.37
2019-01-21T18:54:55.015Z,19.20
2019-01-21T18:57:25.784Z,18.93
2019-01-21T18:59:56.549Z,18.77
2019-01-21T19:02:27.318Z,20.13
2019-01-21T19:04:58.121Z,19.60
2019-01-21T19:07:29.005Z,19.30
2019-01-21T19:09:59.723Z,18.90
2019-01-21T19:12:30.507Z,19.10
2019-01-21T19:15:03.373Z,18.70
2019-01-21T19:17:34.134Z,17.95
2019-01-21T19:20:08.507Z,16.30
2019-01-21T19:22:39.660Z,17.95
2019-01-21T19:25:11.415Z,17.67
2019-01-21T19:27:42.196Z,16.50
2019-01-21T19:30:15.876Z,18.37
2019-01-21T19:32:46.655Z,16.70
2019-01-21T19:35:20.730Z,15.43
2019-01-21T19:37:51.499Z,16.32
2019-01-21T19:40:23.036Z,18.00
2019-01-21T19:42:53.877Z,16.15
2019-01-21T19:45:24.652Z,17.33
2019-01-21T19:47:55.433Z,16.93
2019-01-21T19:50:26.199Z,17.90
2019-01-21T19:52:57.019Z,17.50
2019-01-21T19:55:31.711Z,16.97
2019-01-21T19:58:03.882Z,16.23
2019-01-21T20:00:34.755Z,16.95
2019-01-21T20:03:05.529Z,16.40
2019-01-21T20:05:36.298Z,16.97
2019-01-21T20:08:07.126Z,15.93
2019-01-21T20:10:37.890Z,17.23
2019-01-21T20:13:08.724Z,16.00
2019-01-21T20:15:39.491Z,17.07
2019-01-21T20:18:10.261Z,15.53
2019-01-21T20:20:41.168Z,16.10
2019-01-21T20:23:11.922Z,17.80
2019-01-21T20:25:42.691Z,18.17
2019-01-21T20:28:13.453Z,15.13
2019-01-21T20:30:44.225Z,15.40
2019-01-21T20:33:14.994Z,17.00
2019-01-21T20:35:46.013Z,15.50
2019-01-21T20:38:16.832Z,16.93
2019-01-21T20:40:47.698Z,19.13
2019-01-21T20:43:18.467Z,18.07
2019-01-21T20:45:49.262Z,18.10
2019-01-21T20:48:20.035Z,17.33
2019-01-21T20:50:50.837Z,16.10
2019-01-21T20:53:21.560Z,15.90
2019-01-21T20:55:52.488Z,16.30
2019-01-21T20:58:23.576Z,16.03
2019-01-21T21:00:57.396Z,16.73
2019-01-21T21:03:28.157Z,18.10
2019-01-21T21:05:58.933Z,16.63
2019-01-21T21:08:29.699Z,16.07
2019-01-21T21:11:00.471Z,14.93
2019-01-21T21:13:31.223Z,16.13
2019-01-21T21:16:02.028Z,16.30
2019-01-21T21:18:32.801Z,17.33
2019-01-21T21:21:03.579Z,15.50
2019-01-21T21:23:34.347Z,15.60
2019-01-21T21:26:05.157Z,14.83
2019-01-21T21:28:36.267Z,15.55
2019-01-21T21:31:07.051Z,14.70
2019-01-21T21:33:37.833Z,15.63
2019-01-21T21:36:08.607Z,16.50
2019-01-21T21:38:39.395Z,14.87
2019-01-21T21:41:10.170Z,16.00
2019-01-21T21:43:40.934Z,17.60
2019-01-21T21:46:11.824Z,18.47
2019-01-21T21:48:42.627Z,18.10
2019-01-21T21:51:13.422Z,18.63
2019-01-21T21:53:44.194Z,18.10
2019-01-21T21:56:14.957Z,16.40
2019-01-21T21:58:45.737Z,16.13
2019-01-21T22:01:16.606Z,16.27
2019-01-21T22:03:49.294Z,14.68
2019-01-21T22:06:20.445Z,17.00
2019-01-21T22:08:51.758Z,16.25
2019-01-21T22:11:22.675Z,16.35
2019-01-21T22:13:53.461Z,14.83
2019-01-21T22:16:24.232Z,17.03
2019-01-21T22:18:55.009Z,15.80
2019-01-21T22:21:25.800Z,15.73
2019-01-21T22:23:56.576Z,15.60
2019-01-21T22:26:27.744Z,16.05
2019-01-21T22:28:58.504Z,14.97
2019-01-21T22:31:29.278Z,16.27
2019-01-21T22:34:00.049Z,14.90
2019-01-21T22:36:30.929Z,16.80
2019-01-21T22:39:04.792Z,16.20
2019-01-21T22:41:35.603Z,14.25
2019-01-21T22:44:06.365Z,14.63
2019-01-21T22:46:37.180Z,14.60
2019-01-21T22:49:08.354Z,15.05
2019-01-21T22:51:41.962Z,15.50
2019-01-21T22:54:12.724Z,16.70
2019-01-21T22:56:43.512Z,17.10
2019-01-21T22:59:14.336Z,15.20
2019-01-21T23:01:45.165Z,16.13
2019-01-21T23:04:15.918Z,16.07
2019-01-21T23:06:46.689Z,14.70
2019-01-21T23:09:17.469Z,15.97
2019-01-21T23:11:48.629Z,15.18
2019-01-21T23:14:19.401Z,15.83
2019-01-21T23:16:50.180Z,15.90
2019-01-21T23:19:20.956Z,16.03
2019-01-21T23:21:51.725Z,14.53
2019-01-21T23:24:22.513Z,16.50
2019-01-21T23:26:53.295Z,17.40
2019-01-21T23:29:24.235Z,16.20
2019-01-21T23:31:55.007Z,16.77
2019-01-21T23:34:25.785Z,15.97
2019-01-21T23:36:56.554Z,15.73
2019-01-21T23:39:27.324Z,15.40
2019-01-21T23:41:58.159Z,16.63
2019-01-21T23:44:28.962Z,16.03
2019-01-21T23:47:00.237Z,16.60
2019-01-21T23:49:31.015Z,15.23
2019-01-21T23:52:01.788Z,16.60
2019-01-21T23:54:32.591Z,15.67
2019-01-21T23:57:03.346Z,14.13
2019-01-21T23:59:34.319Z,13.90
